createdAt,value
2018-02-19T00:04:19.496Z,43.50
2018-02-19T00:09:23.396Z,49.93
2018-02-19T00:14:26.479Z,47.13
2018-02-19T00:19:30.339Z,44.27
2018-02-19T00:24:35.091Z,52.83
2018-02-19T00:29:39.627Z,49.47
2018-02-19T00:34:42.715Z,50.90
2018-02-19T00:39:47.312Z,51.67
2018-02-19T00:44:50.411Z,48.00
2018-02-19T00:49:53.508Z,48.37
2018-02-19T00:54:56.604Z,53.13
2018-02-19T01:00:01.391Z,48.50
2018-02-19T01:05:04.495Z,50.50
2018-02-19T01:10:08.723Z,54.00
2018-02-19T01:15:11.824Z,48.03
2018-02-19T01:20:14.931Z,50.63
2018-02-19T01:25:19.380Z,50.75
2018-02-19T01:30:22.475Z,49.53
2018-02-19T01:35:25.558Z,51.43
2018-02-19T01:40:29.788Z,54.00
2018-02-19T01:45:33.656Z,53.77
2018-02-19T01:50:36.748Z,51.30
2018-02-19T01:55:39.853Z,51.43
2018-02-19T02:00:44.447Z,55.17
2018-02-19T02:05:47.553Z,52.93
2018-02-19T02:10:50.632Z,55.70
2018-02-19T02:15:54.497Z,54.07
2018-02-19T02:20:58.927Z,58.43
2018-02-19T02:26:02.801Z,57.70
2018-02-19T02:31:05.889Z,56.93
2018-02-19T02:36:09.924Z,55.43
2018-02-19T02:41:13.012Z,59.67
2018-02-19T02:46:16.865Z,56.63
2018-02-19T02:51:19.955Z,61.30
2018-02-19T02:56:23.990Z,53.67
2018-02-19T03:01:27.864Z,57.20
2018-02-19T03:06:31.719Z,51.77
2018-02-19T03:11:35.576Z,57.23
2018-02-19T03:16:38.667Z,48.97
2018-02-19T03:21:43.792Z,51.90
2018-02-19T03:26:47.008Z,56.70
2018-02-19T03:31:51.024Z,55.92
2018-02-19T03:36:54.612Z,49.92
2018-02-19T03:41:57.816Z,53.67
2018-02-19T03:47:01.024Z,49.90
2018-02-19T03:52:04.199Z,52.83
2018-02-19T03:57:07.504Z,58.47
2018-02-19T04:02:10.675Z,51.40
2018-02-19T04:07:13.772Z,54.23
2018-02-19T04:12:17.955Z,50.47
2018-02-19T04:17:21.865Z,53.37
2018-02-19T04:22:25.061Z,54.20
2018-02-19T04:27:29.524Z,47.97
2018-02-19T04:32:32.611Z,56.90
2018-02-19T04:37:35.732Z,58.40
2018-02-19T04:42:38.817Z,52.80
2018-02-19T04:47:41.923Z,52.40
2018-02-19T04:52:46.692Z,50.43
2018-02-19T04:57:49.780Z,54.30
2018-02-19T05:02:52.872Z,49.87
2018-02-19T05:07:57.196Z,48.87
2018-02-19T05:13:00.300Z,52.72
2018-02-19T05:18:03.788Z,56.17
2018-02-19T05:23:08.017Z,52.27
2018-02-19T05:28:12.344Z,50.13
2018-02-19T05:33:15.440Z,51.67
2018-02-19T05:38:18.705Z,56.43
2018-02-19T05:43:23.216Z,49.03
2018-02-19T05:48:26.377Z,48.20
2018-02-19T05:53:29.546Z,48.27
2018-02-19T05:58:34.109Z,44.53
2018-02-19T06:03:37.268Z,42.77
2018-02-19T06:08:40.395Z,42.87
2018-02-19T06:13:44.329Z,45.47
2018-02-19T06:18:48.973Z,42.53
2018-02-19T06:23:53.653Z,42.25
2018-02-19T06:28:56.758Z,42.07
2018-02-19T06:34:00.613Z,40.17
2018-02-19T06:39:04.474Z,44.47
2018-02-19T06:44:08.319Z,39.83
2018-02-19T06:49:11.826Z,38.42
2018-02-19T06:54:14.917Z,39.43
2018-02-19T06:59:18.001Z,39.70
2018-02-19T07:04:21.477Z,35.77
2018-02-19T07:09:25.466Z,57.33
2018-02-19T07:14:29.306Z,46.90
2018-02-19T07:19:32.832Z,44.53
2018-02-19T07:24:37.243Z,43.80
2018-02-19T07:29:42.298Z,44.63
2018-02-19T07:34:45.779Z,37.13
2018-02-19T07:39:49.647Z,46.37
2018-02-19T07:44:53.489Z,49.33
2018-02-19T07:49:56.573Z,44.77
2018-02-19T07:55:01.060Z,38.47
2018-02-19T08:00:04.158Z,41.63
2018-02-19T08:05:07.634Z,44.03
2018-02-19T08:10:11.104Z,39.60
2018-02-19T08:15:14.984Z,42.85
2018-02-19T08:20:18.464Z,36.53
2018-02-19T08:25:22.908Z,34.77
2018-02-19T08:30:27.368Z,32.43
2018-02-19T08:35:30.864Z,32.80
2018-02-19T08:40:35.068Z,35.40
2018-02-19T08:45:39.504Z,32.55
2018-02-19T08:50:42.588Z,32.23
2018-02-19T08:55:45.671Z,31.23
2018-02-19T09:00:49.047Z,30.73
2018-02-19T09:05:52.137Z,28.37
2018-02-19T09:10:55.228Z,27.27
2018-02-19T09:15:59.846Z,27.20
2018-02-19T09:21:04.170Z,27.73
2018-02-19T09:26:07.259Z,29.13
2018-02-19T09:31:11.695Z,26.37
2018-02-19T09:36:14.806Z,27.70
2018-02-19T09:41:18.149Z,28.23
2018-02-19T09:46:22.013Z,25.23
2018-02-19T09:51:25.116Z,30.17
2018-02-19T09:56:29.052Z,25.50
2018-02-19T10:01:32.151Z,31.23
2018-02-19T10:06:35.248Z,39.40
2018-02-19T10:11:40.105Z,27.17
2018-02-19T10:16:43.200Z,24.37
2018-02-19T10:21:47.049Z,26.53
2018-02-19T10:26:50.147Z,28.17
2018-02-19T10:31:53.231Z,25.63
2018-02-19T10:36:57.675Z,25.48
2018-02-19T10:42:02.274Z,22.73
2018-02-19T10:47:05.365Z,30.53
2018-02-19T10:52:09.227Z,23.37
2018-02-19T10:57:13.461Z,23.90
2018-02-19T11:02:17.316Z,23.87
2018-02-19T11:07:21.764Z,24.58
2018-02-19T11:12:25.617Z,22.90
2018-02-19T11:17:28.701Z,22.63
2018-02-19T11:22:31.784Z,22.57
2018-02-19T11:27:34.871Z,22.87
2018-02-19T11:32:39.105Z,24.57
2018-02-19T11:37:43.765Z,24.33
2018-02-19T11:42:47.259Z,26.13
2018-02-19T11:47:51.481Z,20.03
2018-02-19T11:52:55.414Z,23.30
2018-02-19T11:57:59.812Z,24.10
2018-02-19T12:03:03.676Z,22.20
2018-02-19T12:08:07.516Z,24.17
2018-02-19T12:13:10.988Z,23.17
2018-02-19T12:18:14.089Z,22.87
2018-02-19T12:23:17.582Z,25.47
2018-02-19T12:28:22.096Z,22.53
2018-02-19T12:33:25.956Z,22.47
2018-02-19T12:38:29.464Z,24.92
2018-02-19T12:43:32.957Z,27.30
2018-02-19T12:48:37.572Z,24.65
2018-02-19T12:53:40.676Z,26.20
2018-02-19T12:58:44.914Z,25.67
2018-02-19T13:03:49.496Z,23.00
2018-02-19T13:08:53.748Z,26.03
2018-02-19T13:13:57.216Z,22.00
2018-02-19T13:19:01.084Z,23.50
2018-02-19T13:24:04.192Z,25.23
2018-02-19T13:29:08.811Z,23.80
2018-02-19T13:34:13.255Z,20.67
2018-02-19T13:39:16.348Z,22.37
2018-02-19T13:44:20.940Z,24.13
2018-02-19T13:49:24.019Z,24.00
2018-02-19T13:54:27.884Z,21.73
2018-02-19T13:59:32.606Z,24.30
2018-02-19T14:04:35.700Z,23.13
2018-02-19T14:09:39.928Z,24.93
2018-02-19T14:14:43.030Z,21.80
2018-02-19T14:19:47.565Z,28.17
2018-02-19T14:24:51.040Z,25.40
2018-02-19T14:29:54.175Z,22.40
2018-02-19T14:34:58.161Z,22.60
2018-02-19T14:40:01.249Z,24.03
2018-02-19T14:45:04.361Z,25.98
2018-02-19T14:50:08.224Z,24.35
2018-02-19T14:55:11.316Z,23.27
2018-02-19T15:00:14.401Z,25.10
2018-02-19T15:05:18.257Z,23.02
2018-02-19T15:10:22.696Z,23.87
2018-02-19T15:15:25.811Z,24.83
2018-02-19T15:20:30.397Z,23.30
2018-02-19T15:25:33.488Z,22.98
2018-02-19T15:30:36.974Z,22.30
2018-02-19T15:35:41.417Z,23.63
2018-02-19T15:40:44.503Z,23.63
2018-02-19T15:45:48.373Z,23.70
2018-02-19T15:50:52.591Z,25.88
2018-02-19T15:55:55.689Z,23.73
2018-02-19T16:01:00.115Z,25.27
2018-02-19T16:06:03.598Z,24.77
2018-02-19T16:11:06.677Z,25.55
2018-02-19T16:16:10.535Z,23.00
2018-02-19T16:21:13.627Z,25.23
2018-02-19T16:26:16.720Z,23.07
2018-02-19T16:31:21.191Z,23.17
2018-02-19T16:36:24.694Z,26.93
2018-02-19T16:41:28.540Z,25.13
2018-02-19T16:46:31.637Z,25.15
2018-02-19T16:51:34.724Z,21.80
2018-02-19T16:56:39.167Z,26.80
2018-02-19T17:01:42.653Z,24.20
2018-02-19T17:06:46.877Z,24.07
2018-02-19T17:11:50.744Z,22.37
2018-02-19T17:16:54.982Z,24.10
2018-02-19T17:21:59.438Z,25.50
2018-02-19T17:27:04.033Z,28.40
2018-02-19T17:32:08.256Z,24.47
2018-02-19T17:37:12.112Z,24.00
2018-02-19T17:42:15.198Z,24.57
2018-02-19T17:47:19.432Z,25.83
2018-02-19T17:52:22.919Z,25.47
2018-02-19T17:57:26.004Z,23.87
2018-02-19T18:02:29.864Z,29.97
2018-02-19T18:07:34.100Z,27.43
2018-02-19T18:12:37.584Z,27.50
2018-02-19T18:17:41.079Z,29.50
2018-02-19T18:22:44.157Z,28.43
2018-02-19T18:27:48.017Z,32.10
2018-02-19T18:32:51.222Z,29.47
2018-02-19T18:37:54.697Z,30.07
2018-02-19T18:42:57.793Z,28.80
2018-02-19T18:48:01.283Z,27.83
2018-02-19T18:53:04.373Z,30.47
2018-02-19T18:58:08.230Z,32.00
2018-02-19T19:03:12.665Z,35.27
2018-02-19T19:14:04.636Z,30.03
2018-02-19T19:19:07.724Z,31.90
2018-02-19T19:24:11.193Z,33.93
2018-02-19T19:29:14.272Z,33.20
2018-02-19T19:34:17.340Z,30.87
2018-02-19T19:39:21.800Z,33.63
2018-02-19T19:44:25.639Z,33.33
2018-02-19T19:49:29.501Z,35.57
2018-02-19T19:54:32.580Z,35.63
2018-02-19T19:59:35.657Z,33.67
2018-02-19T20:04:39.500Z,34.37
2018-02-19T20:09:43.734Z,33.30
2018-02-19T20:14:46.804Z,31.93
2018-02-19T20:19:51.300Z,33.83
2018-02-19T20:24:54.728Z,31.95
2018-02-19T20:29:58.197Z,32.27
2018-02-19T20:35:01.676Z,29.00
2018-02-19T20:40:06.152Z,32.97
2018-02-19T20:45:09.619Z,36.40
2018-02-19T20:50:12.704Z,33.37
2018-02-19T20:55:15.784Z,36.80
2018-02-19T21:00:18.872Z,36.10
2018-02-19T21:05:22.728Z,34.77
2018-02-19T21:10:25.820Z,38.73
2018-02-19T21:15:29.661Z,34.97
2018-02-19T21:20:33.889Z,35.63
2018-02-19T21:25:38.485Z,35.10
2018-02-19T21:30:41.980Z,32.57
2018-02-19T21:35:45.061Z,35.17
2018-02-19T21:40:48.162Z,38.90
2018-02-19T21:45:51.256Z,36.57
2018-02-19T21:50:55.108Z,38.00
2018-02-19T21:55:58.590Z,39.93
2018-02-19T22:01:03.172Z,38.38
2018-02-19T22:06:06.652Z,36.77
2018-02-19T22:11:10.496Z,39.47
2018-02-19T22:16:13.571Z,37.53
2018-02-19T22:21:17.793Z,39.47
2018-02-19T22:26:21.636Z,34.77
2018-02-19T22:31:26.071Z,36.38
2018-02-19T22:36:29.929Z,39.20
2018-02-19T22:41:33.005Z,37.07
2018-02-19T22:46:37.603Z,36.83
2018-02-19T22:51:40.684Z,38.75
2018-02-19T22:56:44.547Z,39.05
2018-02-19T23:01:48.992Z,39.63
2018-02-19T23:06:52.089Z,39.30
2018-02-19T23:11:56.672Z,36.53
2018-02-19T23:16:59.768Z,36.92
2018-02-19T23:22:03.234Z,35.30
2018-02-19T23:27:07.824Z,36.80
2018-02-19T23:32:12.050Z,40.77
2018-02-19T23:37:16.492Z,37.03
2018-02-19T23:42:20.001Z,42.17
2018-02-19T23:47:24.107Z,38.13
2018-02-19T23:52:27.197Z,38.33
2018-02-19T23:57:31.076Z,38.53
